Time;durP1;ratioP1;P1;durP2;ratioP2;P2;SDS_P1;SDS_P2;PMS_P1;PMS_P2;Temp;Humidity;BMP_temperature;BMP_pressure;BME280_temperature;BME280_humidity;BME280_pressure;Samples;Min_cycle;Max_cycle;Signal;HPM_P1;HPM_P2
2022/06/06 00:02:13;;;;;;;1.98;1.15;;;19.50;98.00;;;;;;6233308;28;20041;-80
2022/06/06 00:05:17;;;;;;;5.00;1.58;;;19.60;97.80;;;;;;6233735;28;20054;-81
2022/06/06 00:08:20;;;;;;;3.50;1.38;;;19.70;97.70;;;;;;6231136;28;20056;-81
2022/06/06 00:11:22;;;;;;;5.80;1.67;;;19.60;97.60;;;;;;6232184;28;20046;-81
2022/06/06 00:14:24;;;;;;;8.35;2.45;;;19.60;98.20;;;;;;6232244;28;20048;-80
2022/06/06 00:17:25;;;;;;;3.72;2.55;;;19.50;98.30;;;;;;6229525;28;20054;-81
2022/06/06 00:20:27;;;;;;;3.30;2.50;;;19.40;98.70;;;;;;6230281;28;20045;-81
2022/06/06 00:23:30;;;;;;;3.90;2.95;;;19.30;99.10;;;;;;6221016;28;20043;-81
2022/06/06 00:26:34;;;;;;;7.40;2.78;;;19.30;99.30;;;;;;6208824;28;20057;-81
2022/06/06 00:29:36;;;;;;;7.15;3.70;;;19.30;99.50;;;;;;6209671;28;20050;-80
2022/06/06 00:35:58;;;;;;;8.65;3.30;;;19.20;99.90;;;;;;6229742;28;20038;-81
2022/06/06 00:39:02;;;;;;;9.65;3.15;;;19.20;99.90;;;;;;6228990;28;20050;-81
2022/06/06 00:42:12;;;;;;;6.85;3.38;;;19.10;99.90;;;;;;6228642;28;20042;-81
2022/06/06 00:45:27;;;;;;;5.53;3.25;;;19.10;99.90;;;;;;6230196;28;20057;-82
2022/06/06 00:48:41;;;;;;;5.03;3.78;;;19.10;99.90;;;;;;6230019;28;20053;-82
2022/06/06 00:51:43;;;;;;;4.15;2.95;;;19.00;99.90;;;;;;6229874;28;20042;-82
2022/06/06 00:54:49;;;;;;;5.07;3.47;;;19.00;99.90;;;;;;6217558;28;20042;-82
2022/06/06 00:57:56;;;;;;;5.38;3.47;;;18.90;99.90;;;;;;6205077;28;20049;-81
2022/06/06 01:00:58;;;;;;;4.50;3.50;;;18.90;99.90;;;;;;6205715;28;20050;-81
2022/06/06 01:04:02;;;;;;;6.55;2.92;;;18.90;99.90;;;;;;6204775;28;20057;-82
2022/06/06 01:07:05;;;;;;;4.93;3.88;;;18.90;99.90;;;;;;6205856;28;20084;-81
2022/06/06 01:10:10;;;;;;;5.63;4.15;;;18.80;99.90;;;;;;6205390;28;20042;-80
2022/06/06 01:13:14;;;;;;;3.95;3.30;;;18.80;99.90;;;;;;6205220;28;20052;-81
2022/06/06 01:16:28;;;;;;;9.55;3.67;;;18.80;99.90;;;;;;6204456;28;20506;-80
2022/06/06 01:20:05;;;;;;;5.45;3.58;;;18.80;99.90;;;;;;6203744;28;20053;-81
2022/06/06 01:23:26;;;;;;;4.43;3.53;;;18.70;99.90;;;;;;6201232;28;20514;-81
2022/06/06 01:26:57;;;;;;;6.32;3.30;;;18.60;99.90;;;;;;6229048;28;20042;-81
2022/06/06 01:30:05;;;;;;;6.15;3.70;;;18.50;99.90;;;;;;6223205;28;20048;-82
2022/06/06 01:33:11;;;;;;;5.85;3.40;;;18.40;99.90;;;;;;6206490;28;20058;-81
2022/06/06 01:36:13;;;;;;;7.47;3.92;;;18.30;99.90;;;;;;6204733;28;20053;-81
2022/06/06 01:39:14;;;;;;;5.32;4.15;;;18.20;99.90;;;;;;6203890;28;20050;-81
2022/06/06 01:42:23;;;;;;;7.85;4.85;;;18.10;99.90;;;;;;6204086;28;20049;-81
2022/06/06 01:45:33;;;;;;;7.45;4.53;;;18.00;99.90;;;;;;6206053;28;20050;-81
2022/06/06 01:48:38;;;;;;;9.27;4.45;;;17.90;99.90;;;;;;6205195;28;20741;-81
2022/06/06 01:51:40;;;;;;;8.00;5.07;;;17.80;99.90;;;;;;6209022;28;20038;-82
2022/06/06 01:54:43;;;;;;;8.13;4.55;;;17.70;99.90;;;;;;6222718;28;20054;-82
2022/06/06 01:57:46;;;;;;;8.77;5.97;;;17.70;99.90;;;;;;6232951;28;20049;-82
2022/06/06 02:00:49;;;;;;;6.05;4.90;;;17.70;99.90;;;;;;6235416;28;20053;-81
2022/06/06 02:03:51;;;;;;;11.50;4.90;;;17.60;99.90;;;;;;6232729;28;20425;-81
2022/06/06 02:06:52;;;;;;;10.45;5.20;;;17.60;99.90;;;;;;6229045;28;20045;-82
2022/06/06 02:09:54;;;;;;;7.00;4.30;;;17.60;99.90;;;;;;6230193;28;20120;-81
2022/06/06 02:12:56;;;;;;;5.13;4.55;;;17.50;99.90;;;;;;6231370;28;20065;-80
2022/06/06 02:16:00;;;;;;;7.55;5.10;;;17.50;99.90;;;;;;6232329;28;20053;-82
2022/06/06 02:19:02;;;;;;;7.38;4.90;;;17.60;99.90;;;;;;6232375;28;20030;-82
2022/06/06 02:22:04;;;;;;;9.50;4.53;;;17.60;99.90;;;;;;6232628;28;20597;-82
2022/06/06 02:25:08;;;;;;;9.32;4.43;;;17.60;99.90;;;;;;6227008;28;20049;-82
2022/06/06 02:28:10;;;;;;;8.40;4.80;;;17.50;99.90;;;;;;6235563;28;20048;-81
2022/06/06 02:31:13;;;;;;;8.75;4.93;;;17.50;99.90;;;;;;6216575;28;20050;-81
2022/06/06 02:34:14;;;;;;;6.78;3.50;;;17.50;99.90;;;;;;6211474;28;20441;-81
2022/06/06 02:37:16;;;;;;;6.53;4.18;;;17.50;99.90;;;;;;6212666;28;20058;-82
2022/06/06 02:40:21;;;;;;;5.75;4.63;;;17.40;99.90;;;;;;6209940;28;20038;-82
2022/06/06 02:43:23;;;;;;;5.75;3.65;;;17.40;99.90;;;;;;6211032;28;20057;-80
2022/06/06 02:46:26;;;;;;;8.93;4.25;;;17.40;99.90;;;;;;6215523;28;20051;-82
2022/06/06 02:49:28;;;;;;;8.52;4.95;;;17.40;99.90;;;;;;6223600;28;20054;-81
2022/06/06 02:52:29;;;;;;;5.68;3.70;;;17.40;99.90;;;;;;6222142;28;20053;-80
2022/06/06 02:55:32;;;;;;;8.48;4.43;;;17.40;99.90;;;;;;6231839;28;20045;-82
2022/06/06 02:58:33;;;;;;;7.40;4.57;;;17.40;99.90;;;;;;6239142;28;20053;-81
2022/06/06 03:01:37;;;;;;;8.30;4.03;;;17.40;99.90;;;;;;6237655;28;20050;-82
2022/06/06 03:04:40;;;;;;;7.35;4.50;;;17.40;99.90;;;;;;6241126;28;20050;-83
2022/06/06 03:08:00;;;;;;;8.05;4.13;;;17.40;99.90;;;;;;6242095;28;20045;-80
2022/06/06 03:11:13;;;;;;;6.18;4.63;;;17.40;99.90;;;;;;6238257;28;20057;-81
2022/06/06 03:14:48;;;;;;;10.27;4.93;;;17.40;99.90;;;;;;6236590;28;20137;-82
2022/06/06 03:21:45;;;;;;;6.80;4.40;;;17.40;99.90;;;;;;6192814;28;20654;-81
2022/06/06 03:24:59;;;;;;;8.30;4.03;;;17.40;99.90;;;;;;6207748;28;20046;-82
2022/06/06 03:28:11;;;;;;;7.32;4.13;;;17.40;99.90;;;;;;6206390;28;20050;-80
2022/06/06 03:31:23;;;;;;;7.43;4.47;;;17.40;99.90;;;;;;6207134;28;20042;-81
2022/06/06 03:34:34;;;;;;;5.82;4.07;;;17.50;99.90;;;;;;6211869;28;20068;-82
2022/06/06 03:37:42;;;;;;;5.47;4.35;;;17.60;99.90;;;;;;6211165;28;20053;-82
2022/06/06 03:40:58;;;;;;;7.28;4.28;;;17.70;99.90;;;;;;6210802;28;20520;-82
2022/06/06 03:44:08;;;;;;;8.43;4.47;;;17.90;99.90;;;;;;6209916;28;20394;-82
2022/06/06 03:47:22;;;;;;;7.20;4.25;;;18.00;99.90;;;;;;6204938;28;20072;-83
2022/06/06 03:50:36;;;;;;;7.32;4.88;;;18.20;99.90;;;;;;6205646;28;20042;-82
2022/06/06 03:53:50;;;;;;;6.80;4.90;;;18.30;99.90;;;;;;6212453;28;20433;-82
2022/06/06 03:57:05;;;;;;;6.13;3.85;;;18.40;99.90;;;;;;6208281;28;20057;-82
2022/06/06 04:00:12;;;;;;;4.80;3.70;;;18.50;99.90;;;;;;6205801;28;20046;-81
2022/06/06 04:03:16;;;;;;;11.63;4.38;;;18.60;99.90;;;;;;6205476;28;20050;-82
2022/06/06 04:06:20;;;;;;;5.18;3.80;;;18.70;99.90;;;;;;6205885;28;20053;-82
2022/06/06 04:09:22;;;;;;;5.72;3.70;;;18.80;99.90;;;;;;6205524;28;20050;-83
2022/06/06 04:12:41;;;;;;;6.72;3.47;;;18.90;99.90;;;;;;6205389;28;20046;-83
2022/06/06 04:15:52;;;;;;;10.60;3.60;;;19.00;99.90;;;;;;6205951;28;20046;-81
2022/06/06 04:19:08;;;;;;;8.82;3.40;;;19.10;99.90;;;;;;6205696;28;20052;-83
2022/06/06 04:22:35;;;;;;;3.63;3.08;;;19.30;99.90;;;;;;6205551;28;20062;-83
2022/06/06 04:25:46;;;;;;;11.57;3.63;;;19.60;99.90;;;;;;6219792;28;20058;-82
2022/06/06 04:28:58;;;;;;;5.25;3.47;;;19.80;99.90;;;;;;6226903;28;20056;-83
2022/06/06 04:32:07;;;;;;;4.38;3.10;;;20.10;99.90;;;;;;6227006;28;20037;-83
2022/06/06 04:35:18;;;;;;;5.57;3.45;;;20.20;99.40;;;;;;6225406;28;20060;-82
2022/06/06 04:38:28;;;;;;;6.15;3.38;;;20.60;99.10;;;;;;6219127;28;20394;-82
2022/06/06 04:41:37;;;;;;;6.28;2.65;;;21.00;98.10;;;;;;6204519;28;20051;-83
2022/06/06 04:44:45;;;;;;;7.40;2.85;;;21.20;97.50;;;;;;6205207;28;20050;-83
2022/06/06 04:47:49;;;;;;;3.92;2.83;;;21.60;96.70;;;;;;6204513;28;20421;-83
2022/06/06 04:50:52;;;;;;;7.72;2.60;;;22.10;95.70;;;;;;6204312;28;20054;-83
2022/06/06 04:53:57;;;;;;;4.60;2.33;;;22.20;95.50;;;;;;6221261;28;20077;-83
2022/06/06 04:57:01;;;;;;;3.45;2.30;;;22.70;94.90;;;;;;6203599;28;20427;-83
2022/06/06 05:00:05;;;;;;;7.35;2.13;;;23.70;93.80;;;;;;6198742;28;20407;-83
2022/06/06 05:03:07;;;;;;;2.53;2.08;;;23.90;92.70;;;;;;6199045;28;20129;-83
2022/06/06 05:06:34;;;;;;;3.92;2.35;;;24.30;92.10;;;;;;6198428;28;20049;-84
2022/06/06 05:10:01;;;;;;;2.85;2.00;;;24.90;91.00;;;;;;6198613;28;20085;-82
2022/06/06 05:13:30;;;;;;;8.10;2.88;;;25.00;89.80;;;;;;6208532;28;20054;-83
2022/06/06 05:16:56;;;;;;;9.73;2.33;;;24.20;90.40;;;;;;6226605;28;20050;-83
2022/06/06 05:20:17;;;;;;;3.60;2.15;;;24.30;90.50;;;;;;6223390;28;20050;-83
2022/06/06 05:23:40;;;;;;;6.13;2.35;;;24.70;90.10;;;;;;6215668;28;20042;-81
2022/06/06 05:27:03;;;;;;;6.05;2.30;;;24.60;89.50;;;;;;6204376;28;20050;-83
2022/06/06 05:30:11;;;;;;;4.22;2.30;;;24.20;90.10;;;;;;6202905;28;20044;-84
2022/06/06 05:33:18;;;;;;;4.47;2.50;;;24.00;90.50;;;;;;6204473;28;20418;-82
2022/06/06 05:36:37;;;;;;;10.50;2.33;;;23.90;90.70;;;;;;6203561;28;20055;-82
2022/06/06 05:40:03;;;;;;;7.18;2.28;;;24.20;90.60;;;;;;6201582;28;20497;-82
2022/06/06 05:43:31;;;;;;;9.00;2.72;;;24.30;90.20;;;;;;6201824;28;20049;-83
2022/06/06 05:46:45;;;;;;;3.70;2.50;;;23.80;90.20;;;;;;6202239;28;20056;-83
2022/06/06 05:50:02;;;;;;;5.25;2.70;;;23.20;91.10;;;;;;6202164;28;20042;-82
2022/06/06 05:53:28;;;;;;;3.13;2.28;;;22.90;91.80;;;;;;6216081;28;20046;-82
2022/06/06 05:56:58;;;;;;;3.65;2.72;;;22.60;92.40;;;;;;6227181;28;20050;-82
2022/06/06 06:00:16;;;;;;;4.63;2.67;;;22.40;92.80;;;;;;6201990;28;20050;-83
2022/06/06 06:04:00;;;;;;;3.58;2.67;;;22.30;93.00;;;;;;6235324;28;20053;-83
2022/06/06 06:07:14;;;;;;;4.97;2.35;;;22.30;93.30;;;;;;6162502;28;20090;-83
2022/06/06 06:10:20;;;;;;;8.23;2.85;;;22.20;93.30;;;;;;6230640;28;20047;-84
2022/06/06 06:13:41;;;;;;;5.32;2.05;;;22.20;93.40;;;;;;6215280;28;20053;-84
2022/06/06 06:16:48;;;;;;;6.95;2.72;;;22.30;93.50;;;;;;6214766;28;20050;-83
2022/06/06 06:19:56;;;;;;;6.75;2.28;;;22.40;93.40;;;;;;6215460;28;20127;-83
2022/06/06 06:23:04;;;;;;;5.63;2.53;;;22.90;93.10;;;;;;6235193;28;20048;-83
2022/06/06 06:26:08;;;;;;;3.70;2.70;;;23.30;92.50;;;;;;6230659;28;20058;-83
2022/06/06 06:29:11;;;;;;;5.43;2.55;;;23.30;91.80;;;;;;6237623;28;20516;-83
2022/06/06 06:32:38;;;;;;;4.07;2.15;;;23.80;91.40;;;;;;6213380;28;20042;-83
2022/06/06 06:35:49;;;;;;;6.82;2.47;;;24.60;90.00;;;;;;6211303;28;20047;-83
2022/06/06 06:39:07;;;;;;;3.40;2.40;;;25.00;87.70;;;;;;6210817;28;20052;-84
2022/06/06 06:42:27;;;;;;;3.10;1.85;;;25.90;84.40;;;;;;6210153;28;20524;-84
2022/06/06 06:45:33;;;;;;;3.08;1.50;;;27.10;81.80;;;;;;6210969;28;20050;-84
2022/06/06 06:48:40;;;;;;;3.50;2.53;;;29.10;74.80;;;;;;6210699;28;20055;-83
2022/06/06 06:51:55;;;;;;;2.33;1.70;;;29.80;70.10;;;;;;6210675;28;20470;-83
2022/06/06 06:55:11;;;;;;;4.43;2.22;;;30.00;67.80;;;;;;6228062;28;20050;-83
2022/06/06 06:58:34;;;;;;;4.40;1.98;;;29.60;67.50;;;;;;6235556;28;20046;-83
2022/06/06 07:08:32;;;;;;;5.35;1.88;;;29.30;67.90;;;;;;6234756;28;20042;-83
2022/06/06 07:09:01;;;;;;;4.57;1.80;;;28.40;66.90;;;;;;6211419;28;20081;-83
2022/06/06 07:12:17;;;;;;;2.47;1.60;;;27.80;68.60;;;;;;6232087;28;20656;-83
2022/06/06 07:15:25;;;;;;;4.10;1.98;;;27.20;69.50;;;;;;6232654;28;20046;-84
2022/06/06 07:18:33;;;;;;;3.67;1.88;;;26.80;70.50;;;;;;6231869;28;20041;-84
2022/06/06 07:21:37;;;;;;;4.30;1.52;;;26.50;71.30;;;;;;6233252;28;20089;-83
2022/06/06 07:24:41;;;;;;;4.35;1.40;;;26.50;72.20;;;;;;6219561;28;20077;-84
2022/06/06 07:27:43;;;;;;;3.17;1.70;;;26.60;72.30;;;;;;6229079;28;20050;-84
2022/06/06 07:31:09;;;;;;;3.53;1.50;;;26.30;72.00;;;;;;6231001;28;20042;-83
2022/06/06 07:34:34;;;;;;;6.50;1.58;;;25.90;73.30;;;;;;6230973;28;20105;-83
2022/06/06 07:37:50;;;;;;;4.05;1.60;;;25.60;73.90;;;;;;6231214;28;20065;-84
2022/06/06 07:41:04;;;;;;;4.00;1.70;;;25.30;74.70;;;;;;6232939;28;20518;-83
2022/06/06 07:44:28;;;;;;;4.57;1.73;;;25.10;75.80;;;;;;6225717;28;20054;-83
2022/06/06 07:47:43;;;;;;;3.75;1.45;;;25.30;76.40;;;;;;6224825;28;20050;-83
2022/06/06 07:50:54;;;;;;;4.07;1.50;;;26.60;73.50;;;;;;6225541;28;20046;-84
2022/06/06 07:54:08;;;;;;;2.25;1.25;;;28.40;69.30;;;;;;6214958;28;20043;-84
2022/06/06 07:57:19;;;;;;;5.47;1.65;;;30.40;63.80;;;;;;6225362;28;20422;-84
2022/06/06 08:00:22;;;;;;;2.15;1.73;;;32.50;56.10;;;;;;6224924;28;20061;-83
2022/06/06 08:03:32;;;;;;;4.55;1.30;;;34.30;52.60;;;;;;6179029;28;20053;-83
2022/06/06 08:06:40;;;;;;;4.22;1.23;;;35.90;46.30;;;;;;6234414;28;20046;-84
2022/06/06 08:10:07;;;;;;;1.17;0.90;;;36.40;44.40;;;;;;6225636;28;20052;-85
2022/06/06 08:13:27;;;;;;;2.38;1.38;;;37.00;42.00;;;;;;6227216;28;20046;-84
2022/06/06 08:16:34;;;;;;;2.78;0.88;;;37.30;41.40;;;;;;6225334;28;20053;-82
2022/06/06 08:19:49;;;;;;;1.85;0.93;;;37.90;39.80;;;;;;6232658;28;20057;-82
2022/06/06 08:22:52;;;;;;;3.63;0.80;;;38.10;39.20;;;;;;6230592;28;20045;-81
2022/06/06 08:25:57;;;;;;;4.00;1.00;;;36.10;39.90;;;;;;6213444;28;20041;-82
2022/06/06 08:29:01;;;;;;;7.68;1.15;;;33.70;44.00;;;;;;6223798;28;20050;-81
2022/06/06 08:32:05;;;;;;;2.10;0.88;;;32.00;47.60;;;;;;6223635;28;20042;-81
2022/06/06 08:35:07;;;;;;;1.25;0.90;;;30.80;49.80;;;;;;6224634;28;20100;-81
2022/06/06 08:38:23;;;;;;;2.83;1.38;;;29.60;52.30;;;;;;6223063;28;20053;-81
2022/06/06 08:42:07;;;;;;;1.95;1.00;;;28.80;54.00;;;;;;6223456;28;20449;-81
2022/06/06 08:45:32;;;;;;;1.38;0.82;;;28.30;53.60;;;;;;6214673;28;20494;-83
2022/06/06 08:48:48;;;;;;;1.83;0.90;;;27.80;55.70;;;;;;6222821;28;20069;-82
2022/06/06 08:51:52;;;;;;;2.13;0.82;;;28.30;56.10;;;;;;6225125;28;20535;-82
2022/06/06 08:55:25;;;;;;;2.28;0.85;;;29.80;54.40;;;;;;6214637;28;20421;-84
2022/06/06 08:59:04;;;;;;;3.67;0.82;;;29.40;52.20;;;;;;6221289;28;20048;-83
2022/06/06 09:02:36;;;;;;;2.53;1.08;;;28.80;54.30;;;;;;6216339;28;20101;-83
2022/06/06 09:06:06;;;;;;;2.60;0.88;;;28.20;54.20;;;;;;6224790;28;20060;-82
2022/06/06 09:09:46;;;;;;;3.78;0.93;;;28.40;54.90;;;;;;6224740;28;20413;-82
2022/06/06 09:13:16;;;;;;;2.85;0.90;;;29.40;53.10;;;;;;6224835;28;20045;-82
2022/06/06 09:16:45;;;;;;;7.63;1.88;;;31.60;50.40;;;;;;6226615;28;20052;-82
2022/06/06 09:20:08;;;;;;;4.40;0.55;;;33.80;44.60;;;;;;6249787;23;20049;-81
2022/06/06 09:23:40;;;;;;;4.05;1.00;;;34.30;42.70;;;;;;6225060;28;20602;-81
2022/06/06 09:26:55;;;;;;;3.20;0.80;;;34.30;41.60;;;;;;6228932;28;20045;-82
2022/06/06 09:30:11;;;;;;;0.90;0.57;;;33.30;43.50;;;;;;6243461;28;20058;-80
2022/06/06 09:33:55;;;;;;;2.05;0.90;;;32.20;44.30;;;;;;6234917;28;20065;-81
2022/06/06 09:37:06;;;;;;;4.03;1.00;;;30.90;46.20;;;;;;6198503;28;20180;-83
2022/06/06 09:40:24;;;;;;;2.83;0.85;;;29.80;49.20;;;;;;6233926;28;20072;-83
2022/06/06 09:43:34;;;;;;;4.20;0.93;;;29.20;51.60;;;;;;6230315;28;20436;-84
2022/06/06 09:47:00;;;;;;;8.43;1.23;;;28.70;52.00;;;;;;6233559;28;20497;-84
2022/06/06 09:50:29;;;;;;;7.47;1.00;;;28.10;51.50;;;;;;6232137;28;20046;-81
2022/06/06 10:01:52;;;;;;;2.08;1.35;;;26.10;66.20;;;;;;6209817;28;20054;-82
2022/06/06 10:05:29;;;;;;;5.53;1.60;;;25.00;71.00;;;;;;6209553;28;20050;-81
2022/06/06 10:09:13;;;;;;;2.08;1.73;;;24.20;76.60;;;;;;6222285;28;20058;-83
2022/06/06 10:12:48;;;;;;;4.60;1.70;;;23.60;81.40;;;;;;6233279;28;20050;-81
2022/06/06 10:16:20;;;;;;;3.38;1.50;;;23.10;83.60;;;;;;6230499;28;20049;-81
2022/06/06 10:19:44;;;;;;;2.30;1.45;;;22.90;84.90;;;;;;6231674;28;20054;-82
2022/06/06 10:22:59;;;;;;;4.38;1.88;;;22.90;86.30;;;;;;6233066;28;20044;-82
2022/06/06 10:26:32;;;;;;;2.63;1.25;;;22.90;87.40;;;;;;6231059;28;20042;-84
2022/06/06 10:30:12;;;;;;;2.42;1.23;;;23.50;87.80;;;;;;6231077;28;20139;-82
2022/06/06 10:33:48;;;;;;;1.45;0.98;;;24.60;84.00;;;;;;6207953;28;20057;-81
2022/06/06 10:41:00;;;;;;;5.13;1.20;;;26.60;76.30;;;;;;6229036;28;20052;-82
2022/06/06 10:44:33;;;;;;;1.85;0.90;;;27.40;75.00;;;;;;6229173;28;20053;-82
2022/06/06 10:48:01;;;;;;;2.03;0.63;;;28.00;67.50;;;;;;6229956;28;20038;-82
2022/06/06 10:51:42;;;;;;;1.05;0.73;;;28.40;64.70;;;;;;6221285;28;20056;-82
2022/06/06 10:55:36;;;;;;;3.05;0.70;;;28.70;59.60;;;;;;6226414;28;20048;-81
2022/06/06 10:59:10;;;;;;;2.08;0.82;;;28.70;57.40;;;;;;6229167;28;20054;-82
2022/06/06 11:02:48;;;;;;;3.20;0.90;;;28.40;57.00;;;;;;6231342;28;20054;-81
2022/06/06 11:06:33;;;;;;;2.58;0.75;;;27.90;59.80;;;;;;6230968;28;20045;-82
2022/06/06 11:10:16;;;;;;;4.15;1.20;;;27.60;59.50;;;;;;6154234;29;20066;-82
2022/06/06 11:13:28;;;;;;;5.18;1.17;;;27.30;59.70;;;;;;6230972;28;20512;-81
2022/06/06 11:17:19;;;;;;;2.65;1.08;;;27.00;60.70;;;;;;6230644;28;20053;-82
2022/06/06 11:21:06;;;;;;;2.40;0.82;;;27.00;61.60;;;;;;6153268;28;20058;-81
2022/06/06 11:24:18;;;;;;;2.28;0.82;;;27.30;61.50;;;;;;6229207;28;20065;-82
2022/06/06 11:27:51;;;;;;;1.65;0.70;;;27.70;58.90;;;;;;6206274;28;20559;-82
2022/06/06 11:31:37;;;;;;;6.40;0.90;;;28.10;58.50;;;;;;6206443;28;20062;-84
2022/06/06 11:35:13;;;;;;;8.57;2.20;;;29.10;56.60;;;;;;6206299;28;20097;-81
2022/06/06 11:38:45;;;;;;;2.13;1.00;;;29.70;55.10;;;;;;6203770;28;20146;-83
2022/06/06 11:42:13;;;;;;;3.22;1.27;;;29.90;53.70;;;;;;6203985;28;20046;-82
2022/06/06 11:45:55;;;;;;;8.30;2.00;;;30.10;52.90;;;;;;6203208;28;20053;-83
2022/06/06 11:49:33;;;;;;;1.85;0.90;;;30.20;53.10;;;;;;6226121;28;20054;-82
2022/06/06 11:53:13;;;;;;;1.20;0.77;;;30.10;53.70;;;;;;6217876;28;20053;-81
2022/06/06 11:56:24;;;;;;;1.80;0.85;;;30.10;53.10;;;;;;6209691;28;20052;-81
2022/06/06 12:00:03;;;;;;;1.77;0.77;;;30.30;53.10;;;;;;6227405;28;20509;-81
2022/06/06 12:03:45;;;;;;;6.18;1.02;;;30.70;52.50;;;;;;6224795;28;20121;-83
2022/06/06 12:07:18;;;;;;;2.17;0.80;;;31.00;49.70;;;;;;6226325;28;20501;-81
2022/06/06 12:10:24;;;;;;;1.35;0.70;;;31.00;50.30;;;;;;6227603;28;20523;-82
2022/06/06 12:14:05;;;;;;;1.40;0.85;;;30.80;50.60;;;;;;6227939;28;20127;-82
2022/06/06 12:17:12;;;;;;;1.30;0.80;;;30.40;49.90;;;;;;6228694;28;20049;-81
2022/06/06 12:20:47;;;;;;;2.95;0.82;;;30.00;51.00;;;;;;6227675;28;20056;-83
2022/06/06 12:24:11;;;;;;;2.25;1.10;;;29.60;52.10;;;;;;6228671;28;20120;-83
2022/06/06 12:27:24;;;;;;;7.97;1.30;;;29.20;52.90;;;;;;6228495;28;20052;-83
2022/06/06 12:30:40;;;;;;;3.10;1.17;;;28.90;54.20;;;;;;6227644;28;20038;-82
2022/06/06 12:33:48;;;;;;;1.98;1.13;;;28.50;54.10;;;;;;6227216;28;20052;-81
2022/06/06 12:36:59;;;;;;;4.20;1.48;;;28.20;55.40;;;;;;6227523;28;20050;-82
2022/06/06 12:40:08;;;;;;;4.53;0.82;;;27.80;56.00;;;;;;6227463;28;20050;-82
2022/06/06 12:43:18;;;;;;;5.57;0.80;;;27.40;57.20;;;;;;6226539;28;20544;-80
2022/06/06 12:47:07;;;;;;;1.42;0.70;;;27.20;57.90;;;;;;6244195;28;20050;-81
2022/06/06 12:50:36;;;;;;;3.65;1.15;;;26.90;58.90;;;;;;6154621;29;20118;-82
2022/06/06 12:54:24;;;;;;;2.90;0.80;;;26.60;60.30;;;;;;6164151;28;20052;-82
2022/06/06 12:57:58;;;;;;;5.32;1.10;;;26.50;61.10;;;;;;6194186;28;20057;-82
2022/06/06 13:01:39;;;;;;;2.72;1.25;;;26.40;61.70;;;;;;6203854;28;20058;-83
2022/06/06 13:05:05;;;;;;;1.30;0.70;;;26.30;61.80;;;;;;6205114;28;20056;-82
2022/06/06 13:08:34;;;;;;;2.67;0.88;;;26.10;62.70;;;;;;6219100;28;20133;-81
2022/06/06 13:11:49;;;;;;;3.17;0.73;;;26.10;63.10;;;;;;6234922;28;20065;-82
2022/06/06 13:39:09;;;;;;;4.38;1.50;;;25.30;68.40;;;;;;6180862;28;20050;-85
2022/06/06 13:42:48;;;;;;;5.15;1.33;;;25.40;68.70;;;;;;6176406;28;20453;-84
2022/06/06 13:57:57;;;;;;;0.95;0.45;;;27.50;60.80;;;;;;6121174;29;20407;-84
2022/06/06 14:01:16;;;;;;;7.00;0.75;;;28.10;58.90;;;;;;6134463;29;20048;-85
2022/06/06 14:04:38;;;;;;;2.08;0.77;;;28.50;57.00;;;;;;6226394;28;20054;-85
2022/06/06 14:07:58;;;;;;;3.50;0.57;;;28.80;56.20;;;;;;6212873;28;20112;-84
2022/06/06 14:11:10;;;;;;;6.10;0.68;;;28.90;52.60;;;;;;6226356;28;20054;-84
2022/06/06 14:14:18;;;;;;;8.05;1.38;;;28.70;52.20;;;;;;6228811;28;20053;-84
2022/06/06 14:17:27;;;;;;;0.68;0.55;;;28.40;52.30;;;;;;6233264;28;20050;-84
2022/06/06 14:20:36;;;;;;;3.50;0.60;;;28.30;53.00;;;;;;6231233;28;20066;-84
2022/06/06 14:23:40;;;;;;;2.33;0.40;;;28.30;52.40;;;;;;6231534;28;20045;-85
2022/06/06 14:26:49;;;;;;;0.40;0.40;;;28.20;52.70;;;;;;6231010;28;20698;-84
2022/06/06 14:30:41;;;;;;;2.20;0.50;;;28.10;52.60;;;;;;6227397;28;20062;-85
2022/06/06 14:33:54;;;;;;;6.57;0.70;;;28.10;53.20;;;;;;6229605;28;20137;-84
2022/06/06 14:37:24;;;;;;;2.75;0.50;;;28.10;52.90;;;;;;6230047;28;20140;-83
2022/06/06 14:40:37;;;;;;;0.80;0.47;;;27.80;52.70;;;;;;6229827;28;20486;-83
2022/06/06 14:43:51;;;;;;;1.52;0.55;;;27.60;51.90;;;;;;6230077;28;20046;-83
2022/06/06 14:47:08;;;;;;;0.98;0.30;;;27.20;52.80;;;;;;6229386;28;20046;-83
2022/06/06 14:53:36;;;;;;;3.83;0.60;;;26.60;54.40;;;;;;6229758;28;20045;-83
2022/06/06 14:56:46;;;;;;;0.98;0.45;;;26.40;54.80;;;;;;6229946;28;20081;-83
2022/06/06 14:59:53;;;;;;;0.90;0.32;;;26.30;55.40;;;;;;6228428;28;20056;-84
2022/06/06 15:03:09;;;;;;;1.98;0.57;;;26.20;55.70;;;;;;6229289;28;20064;-83
2022/06/06 15:06:12;;;;;;;1.40;0.50;;;26.20;55.90;;;;;;6230499;28;20034;-82
2022/06/06 15:09:29;;;;;;;3.38;0.70;;;26.10;56.00;;;;;;6229572;28;20046;-84
2022/06/06 15:19:50;;;;;;;2.07;0.50;;;25.80;57.30;;;;;;6213310;23;1047358;-84
2022/06/06 15:22:53;;;;;;;3.63;0.50;;;25.60;58.50;;;;;;6228947;28;20050;-84
2022/06/06 15:26:00;;;;;;;0.35;0.22;;;25.40;58.30;;;;;;6226908;28;20046;-84
2022/06/06 15:29:11;;;;;;;1.33;0.80;;;25.30;58.90;;;;;;6230356;28;20366;-85
2022/06/06 15:32:20;;;;;;;1.27;0.38;;;25.10;59.10;;;;;;6208968;28;20054;-83
2022/06/06 15:35:44;;;;;;;4.05;0.63;;;25.10;59.20;;;;;;6210501;28;20522;-83
2022/06/06 15:39:16;;;;;;;1.75;0.47;;;25.10;59.80;;;;;;6211546;28;20046;-83
2022/06/06 15:42:29;;;;;;;4.15;0.47;;;25.20;59.60;;;;;;6216295;28;20117;-83
2022/06/06 15:45:55;;;;;;;0.80;0.52;;;25.20;60.50;;;;;;6211186;28;20489;-85
2022/06/06 15:49:08;;;;;;;1.65;0.50;;;25.30;60.60;;;;;;6209368;28;20130;-85
2022/06/06 15:52:33;;;;;;;2.38;0.47;;;25.20;61.40;;;;;;6208366;28;20133;-86
2022/06/06 15:55:42;;;;;;;1.33;0.40;;;25.10;61.70;;;;;;6230732;28;20436;-84
2022/06/06 15:59:07;;;;;;;3.15;0.57;;;24.90;61.10;;;;;;6212501;28;20050;-84
2022/06/06 16:02:31;;;;;;;2.63;0.63;;;24.80;61.80;;;;;;6212776;28;20458;-83
2022/06/06 16:05:38;;;;;;;3.53;0.60;;;24.60;62.00;;;;;;6212162;28;20141;-82
2022/06/06 16:08:51;;;;;;;1.85;0.40;;;24.60;62.80;;;;;;6213595;28;20050;-84
2022/06/06 16:12:04;;;;;;;2.72;0.68;;;24.60;62.20;;;;;;6212040;28;20110;-83
2022/06/06 16:15:21;;;;;;;2.83;0.43;;;24.50;62.90;;;;;;6212629;28;20050;-84
2022/06/06 16:18:28;;;;;;;3.38;0.52;;;24.40;62.60;;;;;;6213287;28;20053;-83
2022/06/06 16:21:39;;;;;;;1.53;0.83;;;24.30;63.40;;;;;;6214035;28;20057;-83
2022/06/06 16:24:50;;;;;;;1.02;0.60;;;24.10;63.70;;;;;;6211706;28;20043;-83
2022/06/06 16:27:59;;;;;;;0.43;0.25;;;23.90;64.30;;;;;;6214603;28;20043;-85
2022/06/06 16:31:04;;;;;;;3.33;0.75;;;24.10;64.70;;;;;;6212841;28;20046;-83
2022/06/06 16:34:22;;;;;;;1.35;0.50;;;24.10;65.00;;;;;;6209546;28;20046;-84
2022/06/06 16:37:59;;;;;;;0.88;0.50;;;24.30;64.80;;;;;;6212759;28;20058;-85
2022/06/06 16:48:33;;;;;;;3.67;0.75;;;24.60;63.50;;;;;;6213799;28;20054;-84
2022/06/06 16:51:45;;;;;;;0.60;0.35;;;24.60;63.70;;;;;;6207060;28;20052;-85
2022/06/06 16:54:57;;;;;;;0.88;0.57;;;24.80;64.30;;;;;;6203916;28;20041;-83
2022/06/06 16:58:07;;;;;;;5.22;0.50;;;24.70;64.10;;;;;;6204462;28;20133;-83
2022/06/06 17:01:29;;;;;;;1.15;0.82;;;24.80;64.10;;;;;;6206748;28;20054;-88
2022/06/06 17:04:43;;;;;;;1.80;0.30;;;24.60;63.70;;;;;;6204332;28;20466;-84
2022/06/06 17:07:58;;;;;;;1.35;0.40;;;24.60;64.30;;;;;;6207644;28;20058;-83
2022/06/06 17:11:13;;;;;;;1.88;0.52;;;24.80;64.50;;;;;;6204379;28;20046;-84
2022/06/06 17:14:19;;;;;;;2.92;0.60;;;24.80;64.20;;;;;;6204814;28;20523;-83
2022/06/06 17:17:23;;;;;;;2.88;0.80;;;24.80;64.30;;;;;;6205303;28;20141;-84
2022/06/06 17:20:29;;;;;;;1.45;0.60;;;24.80;64.60;;;;;;6204435;28;20062;-84
2022/06/06 17:23:33;;;;;;;0.63;0.30;;;24.60;63.80;;;;;;6204689;28;20497;-84
2022/06/06 17:26:39;;;;;;;1.08;0.35;;;24.60;64.40;;;;;;6204172;28;20324;-82
2022/06/06 17:29:57;;;;;;;1.73;0.77;;;24.50;64.50;;;;;;6205496;28;20057;-83
2022/06/06 17:33:04;;;;;;;1.33;0.55;;;24.50;64.90;;;;;;6206870;28;20055;-83
2022/06/06 17:36:18;;;;;;;0.60;0.40;;;24.40;64.80;;;;;;6205664;28;20050;-83
2022/06/06 17:39:33;;;;;;;1.63;0.65;;;24.10;65.60;;;;;;6204351;28;20056;-83
2022/06/06 17:42:37;;;;;;;1.67;0.60;;;24.10;65.70;;;;;;6203904;28;20450;-84
2022/06/06 17:45:56;;;;;;;3.30;0.80;;;24.10;65.90;;;;;;6204775;28;20050;-83
2022/06/06 17:49:18;;;;;;;4.18;0.80;;;24.00;66.00;;;;;;6205954;28;20046;-84
2022/06/06 17:52:35;;;;;;;5.25;0.70;;;24.00;66.10;;;;;;6205135;28;20034;-84
2022/06/06 17:55:50;;;;;;;0.77;0.30;;;23.90;67.00;;;;;;6209757;28;20049;-83
2022/06/06 17:59:16;;;;;;;1.45;0.60;;;23.90;67.10;;;;;;6210398;28;20056;-84
2022/06/06 18:02:53;;;;;;;2.10;0.30;;;23.60;67.80;;;;;;6209022;28;20046;-82
2022/06/06 18:06:05;;;;;;;1.20;0.47;;;23.50;68.60;;;;;;6200128;28;20057;-83
2022/06/06 18:09:39;;;;;;;1.10;0.60;;;23.30;69.00;;;;;;6210096;28;20054;-83
2022/06/06 18:13:04;;;;;;;2.42;0.65;;;23.30;69.10;;;;;;6206411;28;20097;-84
2022/06/06 18:16:09;;;;;;;3.15;0.63;;;23.20;69.60;;;;;;6208481;28;20096;-84